• Join FlightAware (Why Join?)
  • Login
  • US Flag 
05:07AM EDT


 

Airport Tracker/Info


-or-


 

Live Flight TrackerFlight Track Log ✈ SKW5519 ✈ 29-Sep-2013 ✈ KMSO - KDEN

Flight Track Log - Related Links

Times and Time Zones

All times are in EDT time to prevent confusion due to time zone crossing. See the SKW5519 flight status page for this flight to view local times or setup timezone preferences in your user account.

Time Position Orientation Groundspeed Altitude Reporting Facility
EDT Latitude Longitude Course Direction KTS MPH feet Rate Location/Type
07:09PM 46.8303 -114.0681 180° South 191 220 7,400  Level Salt Lake Center
07:10PM 46.7722 -114.0264 154° Southeast 252 290 9,500 2,040 Climbing Salt Lake Center
07:11PM 46.7203 -113.9392 131° Southeast 284 327 11,600 1,800 Climbing Salt Lake Center
07:12PM 46.4892 -113.4177 130° Southeast  Level Estimated
07:12PM 46.6586 -113.8344 131° Southeast 312 359 13,300  Level Salt Lake Center
07:13PM 46.4083 -113.2921 129° Southeast  Level Estimated
07:13PM 46.5944 -113.7261 131° Southeast 349 402 14,600  Level Salt Lake Center
07:14PM 46.5258 -113.6122 131° Southeast 372 428 16,100 1,800 Climbing Salt Lake Center
07:15PM 46.4542 -113.4908 131° Southeast 369 425 18,400 1,620 Climbing Salt Lake Center
07:16PM 46.3817 -113.3758 132° Southeast 385 443 19,500 900 Climbing Salt Lake Center
07:17PM 46.3092 -113.2586 132° Southeast 395 455 20,300 780 Climbing Salt Lake Center
07:18PM 46.2281 -113.1283 132° Southeast 424 488 21,100 780 Climbing Salt Lake Center
07:19PM 46.1489 -112.9958 131° Southeast 431 496 22,000 900 Climbing Salt Lake Center
07:20PM 46.0611 -112.8544 132° Southeast 432 497 23,000 780 Climbing Salt Lake Center
07:21PM 45.9778 -112.7189 131° Southeast 445 512 23,700 780 Climbing Salt Lake Center
07:22PM 45.8919 -112.5811 132° Southeast 453 521 24,600 900 Climbing Salt Lake Center
07:23PM 45.8061 -112.4439 132° Southeast 455 524 25,600 720 Climbing Salt Lake Center
07:24PM 45.7194 -112.3058 132° Southeast 458 527 26,100 480 Climbing Salt Lake Center
07:25PM 45.6300 -112.1625 132° Southeast 472 543 26,600 480 Climbing Salt Lake Center
07:26PM 45.5389 -112.0181 132° Southeast 481 554 27,100 480 Climbing Salt Lake Center
07:27PM 45.4453 -111.8708 132° Southeast 492 566 27,600 480 Climbing Salt Lake Center
07:28PM 45.3514 -111.7250 132° Southeast 493 567 28,100 480 Climbing Salt Lake Center
07:29PM 45.2486 -111.5656 132° Southeast 499 574 28,700 480 Climbing Salt Lake Center
07:30PM 45.1536 -111.4175 132° Southeast 500 575 29,200 480 Climbing Salt Lake Center
07:31PM 45.0678 -111.2875 133° Southeast 491 565 29,700 480 Climbing Salt Lake Center
07:32PM 44.9644 -111.1294 133° Southeast 488 562 30,300 480 Climbing Salt Lake Center
07:33PM 44.8744 -110.9928 133° Southeast 492 566 30,700 300 Climbing Salt Lake Center
07:34PM 44.7825 -110.8553 133° Southeast 498 573 31,000 120 Climbing Salt Lake Center
07:35PM 44.6733 -110.6928 133° Southeast 508 585 31,000  Level Salt Lake Center
07:36PM 44.5794 -110.5519 133° Southeast 512 589 31,000  Level Salt Lake Center
07:37PM 44.4867 -110.4108 133° Southeast 512 589 31,000  Level Salt Lake Center
07:38PM 44.3758 -110.2497 134° Southeast 516 594 31,000  Level Salt Lake Center
07:39PM 44.2856 -110.1136 133° Southeast 501 577 31,000  Level Salt Lake Center
07:40PM 44.1761 -109.9544 134° Southeast 505 581 31,000  Level Salt Lake Center
07:41PM 44.0831 -109.8186 134° Southeast 506 582 31,000  Level Salt Lake Center
07:42PM 43.9761 -109.6642 134° Southeast 499 574 31,000  Level Salt Lake Center
07:43PM 43.8839 -109.5328 134° Southeast 496 571 31,000  Level Salt Lake Center
07:44PM 43.7942 -109.4044 134° Southeast 488 562 31,000  Level Salt Lake Center
07:45PM 43.7000 -109.2717 134° Southeast 485 558 31,000  Level Salt Lake Center
07:46PM 43.5894 -109.1144 134° Southeast 479 551 31,000  Level Salt Lake Center
07:48PM 43.4969 -108.9839 134° Southeast 478 550 31,000  Level Salt Lake Center
07:49PM 43.4039 -108.8531 134° Southeast 480 552 31,000  Level Salt Lake Center
07:50PM 43.3103 -108.7206 134° Southeast 484 557 31,000  Level Salt Lake Center
07:51PM 43.2164 -108.5914 135° Southeast 481 554 31,000  Level Salt Lake Center
07:52PM 43.1233 -108.4603 134° Southeast 482 555 31,000  Level Salt Lake Center
07:53PM 43.0094 -108.3042 135° Southeast 485 558 31,000  Level Salt Lake Center
07:54PM 42.9128 -108.1703 135° Southeast 487 560 31,000  Level Salt Lake Center
07:55PM 42.8222 -108.0444 134° Southeast 486 559 31,000  Level Salt Lake Center
07:56PM 42.7306 -107.9225 136° Southeast 484 557 31,000  Level Salt Lake Center
07:57PM 42.6247 -107.7786 135° Southeast 483 556 31,000  Level Salt Lake Center
07:58PM 42.5333 -107.6544 135° Southeast 483 556 31,000  Level Salt Lake Center
07:59PM 42.4253 -107.5106 135° Southeast 486 559 31,000  Level Salt Lake Center
08:00PM 42.3647 -107.4275 135° Southeast 485 558 31,000  Level Denver Center
08:01PM 42.2611 -107.2911 136° Southeast 469 540 31,000  Level Denver Center
08:02PM 42.1711 -107.1719 136° Southeast 471 542 31,000  Level Denver Center
08:03PM 42.0539 -107.0556 144° Southeast 468 539 31,000  Level Denver Center
08:04PM 41.9536 -106.9603 145° Southeast 462 532 31,000  Level Denver Center
08:05PM 41.8361 -106.8472 144° Southeast 463 533 31,000  Level Denver Center
08:06PM 41.7342 -106.7506 145° Southeast 466 536 31,000  Level Denver Center
08:07PM 41.6139 -106.6381 145° Southeast 471 542 31,000  Level Denver Center
08:08PM 41.5122 -106.5425 145° Southeast 467 537 31,000  Level Denver Center
08:09PM 41.4044 -106.4417 145° Southeast 466 536 31,000  Level Denver Center
08:10PM 41.2847 -106.3300 145° Southeast 472 543 31,000 -300 Level Denver Center
08:11PM 41.1694 -106.2231 145° Southeast 473 544 30,500 -840 Descending Denver Center
08:12PM 41.0567 -106.1197 145° Southeast 485 558 29,300 -1,200 Descending Denver Center
08:13PM 40.9508 -106.0211 145° Southeast 485 558 28,100 -1,200 Descending Denver Center
08:14PM 40.8578 -105.8986 135° Southeast 480 552 26,900 -1,200 Descending Denver Center
08:15PM 40.7833 -105.7633 126° Southeast 461 531 25,700 -1,260 Descending Denver Center
08:16PM 40.6928 -105.6003 126° Southeast 461 531 24,300 -1,680 Descending Denver Center
08:17PM 40.6208 -105.4714 126° Southeast 445 512 22,300 -2,100 Descending Denver Center
08:18PM 40.5542 -105.3472 125° Southeast 423 487 20,000 -1,980 Descending Denver Center
08:19PM 40.4925 -105.2306 125° Southeast 394 453 18,300 -1,800 Descending Denver Center
08:20PM 40.4500 -105.0864 111° Southeast 391 450 16,300 -1,560 Descending Denver Center
08:21PM 40.4125 -104.9625 112° Southeast 371 427 15,100 -1,320 Descending Denver Center
08:22PM 40.3611 -104.8558 122° Southeast 328 377 13,600 -1,500 Descending Denver Center
08:23PM 40.2872 -104.7989 150° Southeast 310 357 12,100 -1,500 Descending Denver Center
08:24PM 40.2183 -104.7453 149° Southeast 292 336 10,600 -1,260 Descending Denver Center
08:25PM 40.1483 -104.6903 149° Southeast 275 316 9,600 -840 Descending Denver Center
08:26PM 40.0822 -104.6847 176° South 236 272 8,900 -1,020 Descending Denver Center
08:28PM 40.0144 -104.6861 181° South 226 260 7,500 -1,200 Descending Denver Center
08:29PM 39.9572 -104.6861 180° South 208 239 6,500 -960 Descending Denver Center
08:30PM 39.9108 -104.6867 181° South 158 182 5,600 -600 Descending Denver Center
08:31PM 39.8775 -104.6872 181° South 126 145 5,300 -300 Descending Denver Center